Portada
METAR-TAF:

METAR-TAF

Aeroports :

Amman, Jordània

latitud: 31-59N, longitud: 035-59E, altitud: 767 m

Observació

L'informe es va fer fa 1 hora i 3 minuts, a les 02:00 UTC
Vent calma
Temperatura 23°C
Humitat 36%
Pressió 1014 hPa
Visibilitat 10 km o més
sense núvols per sota de 1500 mi sense presència de cumulonimbus.

METAR: OJAM 220200Z 00000KT CAVOK 23/07 Q1014 NOSIG

Hora: 06:03 (03:03 UTC)

Pronòstic

L'informe es va fer fa 4 hores i 12 minuts, a les 22:51 UTC
Pronòstic vàlid del 22 a les 00 UTC al 23 a les 06 UTC
Vent 1 kt amb direcció variable
Visibilitat: 7000 m
Evolucionant progressivament
l' 22 a les 05 UTC al 22 a les 07 UTC
Vent 10 kt del Oest/Nord-Oest
Visibilitat: 5000 m
calitja

TAF: OJAM 212251Z 2200/2306 VRB01KT 7000 NSC BECMG 2205/2207 29010KT 5000 HZ

Observacions i pronòstics meteorològics de més de 4000 aeroports (METAR i TAF).

Les estacions disponibles són els punts grocs i vermells al mapa.

Posi el ratolí al punt desitjat per veure el nom de l'estació.

Feu clic per veure les observacions i els pronòstics meteorològics.

Per canviar el mapa: feu clic els botons verds amb una creu de color negre per apropar; al botó verd amb un guió per allunyar la imatge; o en les fletxes verdes per a mapes adjacents.


METAR-TAF: